Time;durP1;ratioP1;P1;durP2;ratioP2;P2;SDS_P1;SDS_P2;PMS_P1;PMS_P2;Temp;Humidity;BMP_temperature;BMP_pressure;BME280_temperature;BME280_humidity;BME280_pressure;Samples;Min_cycle;Max_cycle;Signal;HPM_P1;HPM_P2
2023/10/07 00:01:24;;;;;;;3.33;0.98;;;;;;;;;;4953321;28;20035;-68
2023/10/07 00:03:53;;;;;;;4.47;1.20;;;;;;;;;;4952426;28;20137;-66
2023/10/07 00:06:25;;;;;;;7.75;1.20;;;;;;;;;;4952528;28;20037;-68
2023/10/07 00:08:52;;;;;;;5.22;0.80;;;;;;;;;;4950347;28;20187;-68
2023/10/07 00:11:19;;;;;;;5.45;0.98;;;;;;;;;;4952963;28;20042;-67
2023/10/07 00:13:47;;;;;;;4.43;1.17;;;;;;;;;;4951157;28;20051;-68
2023/10/07 00:16:17;;;;;;;6.78;1.20;;;;;;;;;;4954033;28;20057;-68
2023/10/07 00:18:45;;;;;;;4.32;1.05;;;;;;;;;;4952395;28;20043;-67
2023/10/07 00:21:17;;;;;;;6.18;1.20;;;;;;;;;;4955682;28;20043;-66
2023/10/07 00:23:44;;;;;;;4.20;1.10;;;;;;;;;;4950756;28;20242;-69
2023/10/07 00:26:13;;;;;;;3.72;1.05;;;;;;;;;;4950582;28;20131;-68
2023/10/07 00:28:44;;;;;;;7.13;1.40;;;;;;;;;;4967673;28;20125;-65
2023/10/07 00:31:14;;;;;;;3.63;0.80;;;;;;;;;;4953046;28;20481;-65
2023/10/07 00:34:02;;;;;;;4.20;1.25;;;;;;;;;;4965381;28;20110;-68
2023/10/07 00:39:00;;;;;;;4.85;1.17;;;;;;;;;;4940969;28;20158;-66
2023/10/07 00:41:36;;;;;;;6.55;1.20;;;;;;;;;;4955491;28;20105;-68
2023/10/07 00:44:16;;;;;;;6.22;1.40;;;;;;;;;;4952546;28;20073;-67
2023/10/07 00:46:45;;;;;;;8.15;1.05;;;;;;;;;;4952342;28;20058;-65
2023/10/07 00:49:21;;;;;;;8.10;1.30;;;;;;;;;;4949525;28;20507;-67
2023/10/07 00:51:49;;;;;;;5.60;1.20;;;;;;;;;;4965133;28;20601;-68
2023/10/07 00:54:37;;;;;;;4.38;1.02;;;;;;;;;;4966243;28;20403;-67
2023/10/07 00:59:35;;;;;;;;;;;;;;;;;;4959480;28;20038;-67
2023/10/07 01:02:06;;;;;;;3.78;1.10;;;;;;;;;;4952981;28;19922;-66
2023/10/07 01:04:40;;;;;;;3.67;1.30;;;;;;;;;;4942915;28;20038;-67
2023/10/07 01:07:19;;;;;;;5.60;1.40;;;;;;;;;;4952813;28;20803;-64
2023/10/07 01:12:39;;;;;;;8.02;3.72;;;;;;;;;;4952354;28;20534;-67
2023/10/07 01:15:17;;;;;;;4.50;1.20;;;;;;;;;;4963516;28;20480;-60
2023/10/07 01:17:45;;;;;;;6.85;1.65;;;;;;;;;;4948260;28;20274;-59
2023/10/07 01:20:13;;;;;;;7.03;1.77;;;;;;;;;;4953871;28;20664;-60
2023/10/07 01:22:44;;;;;;;6.63;2.03;;;;;;;;;;4951068;28;20054;-62
2023/10/07 01:25:18;;;;;;;8.77;1.77;;;;;;;;;;4952545;28;20038;-61
2023/10/07 01:27:53;;;;;;;5.22;1.50;;;;;;;;;;4945260;28;20035;-61
2023/10/07 01:30:26;;;;;;;4.45;1.58;;;;;;;;;;4938669;28;20396;-62
2023/10/07 01:32:57;;;;;;;8.80;1.67;;;;;;;;;;4958162;28;20051;-58
2023/10/07 01:35:30;;;;;;;6.50;1.80;;;;;;;;;;4956980;28;20583;-60
2023/10/07 01:38:18;;;;;;;4.80;1.70;;;;;;;;;;4952366;28;20042;-59
2023/10/07 01:43:17;;;;;;;6.70;2.13;;;;;;;;;;4962466;28;20733;-61
2023/10/07 01:45:47;;;;;;;5.10;2.00;;;;;;;;;;4968360;28;20205;-61
2023/10/07 01:48:17;;;;;;;8.10;2.13;;;;;;;;;;4968286;28;20133;-60
2023/10/07 01:50:46;;;;;;;4.47;1.75;;;;;;;;;;4966903;28;20710;-63
2023/10/07 01:53:13;;;;;;;5.25;1.70;;;;;;;;;;4965747;28;20090;-63
2023/10/07 01:55:43;;;;;;;4.13;1.40;;;;;;;;;;4966737;28;20586;-63
2023/10/07 01:58:16;;;;;;;9.80;1.95;;;;;;;;;;4965924;28;20049;-62
2023/10/07 02:00:51;;;;;;;4.35;1.42;;;;;;;;;;4965903;28;21003;-60
2023/10/07 02:03:23;;;;;;;6.75;1.45;;;;;;;;;;4964188;28;20066;-61
2023/10/07 02:05:51;;;;;;;6.95;1.50;;;;;;;;;;4965119;28;20034;-61
2023/10/07 02:08:20;;;;;;;4.90;1.33;;;;;;;;;;4966271;28;21523;-63
2023/10/07 02:10:49;;;;;;;4.63;1.50;;;;;;;;;;4966653;28;20567;-60
2023/10/07 02:13:19;;;;;;;5.90;1.42;;;;;;;;;;4966791;28;20070;-62
2023/10/07 02:15:47;;;;;;;6.88;1.75;;;;;;;;;;4950225;28;20055;-63
2023/10/07 02:18:16;;;;;;;7.65;1.45;;;;;;;;;;4948796;28;20137;-61
2023/10/07 02:20:44;;;;;;;7.65;1.30;;;;;;;;;;4951179;28;20058;-62
2023/10/07 02:23:22;;;;;;;4.28;1.58;;;;;;;;;;4965467;28;20439;-62
2023/10/07 02:25:49;;;;;;;5.03;1.48;;;;;;;;;;4951741;28;20058;-61
2023/10/07 02:28:21;;;;;;;6.40;1.42;;;;;;;;;;4966020;28;20047;-63
2023/10/07 02:31:03;;;;;;;5.32;1.50;;;;;;;;;;4951198;28;20042;-62
2023/10/07 02:33:40;;;;;;;9.65;1.50;;;;;;;;;;4951775;28;20593;-62
2023/10/07 02:36:10;;;;;;;5.22;1.27;;;;;;;;;;4950797;28;20216;-65
2023/10/07 02:38:41;;;;;;;5.40;1.38;;;;;;;;;;4950263;28;20046;-62
2023/10/07 02:41:18;;;;;;;7.13;1.95;;;;;;;;;;4949845;28;20047;-64
2023/10/07 02:43:48;;;;;;;4.75;1.20;;;;;;;;;;4950102;28;20416;-61
2023/10/07 02:46:39;;;;;;;4.47;1.20;;;;;;;;;;4951397;28;20101;-61
2023/10/07 02:49:05;;;;;;;5.18;1.30;;;;;;;;;;4949916;28;20075;-63
2023/10/07 02:51:39;;;;;;;5.35;1.35;;;;;;;;;;4943029;28;20049;-70
2023/10/07 02:54:17;;;;;;;5.70;1.33;;;;;;;;;;4942899;28;20122;-67
2023/10/07 02:57:39;;;;;;;3.75;1.30;;;;;;;;;;4949251;28;20122;-66
2023/10/07 02:59:50;;;;;;;6.15;1.40;;;;;;;;;;4948030;28;20074;-62
2023/10/07 03:04:46;;;;;;;5.13;1.67;;;;;;;;;;4951545;28;20047;-63
2023/10/07 03:07:14;;;;;;;10.45;1.60;;;;;;;;;;4951197;28;20396;-62
2023/10/07 03:12:47;;;;;;;6.25;1.58;;;;;;;;;;4950441;28;20039;-62
2023/10/07 03:15:39;;;;;;;5.57;1.60;;;;;;;;;;4952171;28;20043;-62
2023/10/07 03:18:20;;;;;;;5.38;1.25;;;;;;;;;;4950297;28;20447;-63
2023/10/07 03:20:59;;;;;;;8.13;1.38;;;;;;;;;;4959666;28;20058;-63
2023/10/07 03:23:26;;;;;;;3.38;1.00;;;;;;;;;;4951703;28;20561;-64
2023/10/07 03:28:20;;;;;;;5.15;1.30;;;;;;;;;;4959137;28;20270;-59
2023/10/07 03:30:51;;;;;;;7.68;0.90;;;;;;;;;;4970383;28;20050;-63
2023/10/07 03:33:23;;;;;;;4.25;1.08;;;;;;;;;;4954024;28;20121;-60
2023/10/07 03:38:26;;;;;;;4.00;1.20;;;;;;;;;;4955064;28;20299;-60
2023/10/07 03:40:59;;;;;;;4.57;1.30;;;;;;;;;;4955844;28;20804;-61
2023/10/07 03:43:26;;;;;;;3.33;1.10;;;;;;;;;;4954415;28;20427;-61
2023/10/07 03:45:56;;;;;;;4.30;1.23;;;;;;;;;;4955435;28;20807;-62
2023/10/07 03:48:23;;;;;;;5.15;1.38;;;;;;;;;;4971008;28;20045;-59
2023/10/07 03:50:59;;;;;;;7.70;1.38;;;;;;;;;;4961894;28;20104;-62
2023/10/07 03:53:31;;;;;;;4.90;1.33;;;;;;;;;;4953360;28;20050;-62
2023/10/07 03:56:06;;;;;;;5.22;1.52;;;;;;;;;;4952494;28;20049;-62
2023/10/07 03:58:33;;;;;;;5.28;1.60;;;;;;;;;;4954726;28;20046;-62
2023/10/07 04:03:59;;;;;;;16.33;2.40;;;;;;;;;;4948765;28;20101;-60
2023/10/07 04:06:34;;;;;;;4.68;1.75;;;;;;;;;;4954006;28;20038;-59
2023/10/07 04:09:07;;;;;;;7.93;1.60;;;;;;;;;;4955279;28;20055;-61
2023/10/07 04:11:36;;;;;;;9.13;1.98;;;;;;;;;;4952921;28;20047;-61
2023/10/07 04:16:52;;;;;;;8.32;2.20;;;;;;;;;;4953681;28;20124;-62
2023/10/07 04:21:45;;;;;;;8.18;1.88;;;;;;;;;;4969715;28;20042;-61
2023/10/07 04:24:13;;;;;;;4.45;1.60;;;;;;;;;;4954240;28;20514;-60
2023/10/07 04:26:40;;;;;;;5.82;1.60;;;;;;;;;;4954427;28;20043;-61
2023/10/07 04:29:16;;;;;;;8.52;1.70;;;;;;;;;;4955136;28;21338;-60
2023/10/07 04:31:53;;;;;;;5.10;1.75;;;;;;;;;;4954083;28;20049;-60
2023/10/07 04:34:20;;;;;;;12.57;1.77;;;;;;;;;;4955356;28;20046;-61
2023/10/07 04:39:39;;;;;;;3.88;1.45;;;;;;;;;;4953943;28;20050;-63
2023/10/07 04:42:20;;;;;;;7.97;1.50;;;;;;;;;;4954845;28;20369;-59
2023/10/07 04:49:58;;;;;;;10.57;1.33;;;;;;;;;;4968394;28;20485;-61
2023/10/07 04:52:26;;;;;;;5.00;1.60;;;;;;;;;;4952756;28;20491;-61
2023/10/07 04:54:53;;;;;;;5.28;1.48;;;;;;;;;;4954014;28;20066;-60
2023/10/07 04:57:39;;;;;;;6.90;1.63;;;;;;;;;;4954011;28;20210;-62
2023/10/07 05:00:17;;;;;;;4.70;1.40;;;;;;;;;;4953248;28;20093;-62
2023/10/07 05:02:44;;;;;;;5.10;1.50;;;;;;;;;;4952243;28;20404;-60
2023/10/07 05:05:13;;;;;;;6.22;1.95;;;;;;;;;;4953034;28;20578;-64
2023/10/07 05:07:43;;;;;;;11.23;2.10;;;;;;;;;;4952624;28;20086;-63
2023/10/07 05:10:10;;;;;;;7.88;2.13;;;;;;;;;;4954146;28;20053;-66
2023/10/07 05:12:39;;;;;;;6.05;2.05;;;;;;;;;;4951902;28;20053;-66
2023/10/07 05:15:07;;;;;;;6.28;1.27;;;;;;;;;;4953109;28;20043;-61
2023/10/07 05:17:36;;;;;;;5.90;1.42;;;;;;;;;;4953221;28;20607;-60
2023/10/07 05:20:26;;;;;;;8.95;1.45;;;;;;;;;;4953860;28;20050;-59
2023/10/07 05:22:50;;;;;;;4.65;1.42;;;;;;;;;;4952499;28;20078;-59
2023/10/07 05:25:38;;;;;;;8.00;1.65;;;;;;;;;;4955116;28;20120;-63
2023/10/07 05:28:16;;;;;;;4.22;1.58;;;;;;;;;;4929004;28;20099;-62
2023/10/07 05:30:54;;;;;;;3.35;1.13;;;;;;;;;;4949019;28;21748;-61
2023/10/07 05:33:26;;;;;;;5.35;1.50;;;;;;;;;;4956694;28;20038;-61
2023/10/07 05:35:59;;;;;;;5.25;1.63;;;;;;;;;;4967386;28;20042;-59
2023/10/07 05:38:26;;;;;;;8.13;1.40;;;;;;;;;;4966724;28;20042;-61
2023/10/07 05:40:53;;;;;;;7.00;1.58;;;;;;;;;;4966594;28;20082;-59
2023/10/07 05:43:19;;;;;;;5.28;1.10;;;;;;;;;;4967442;28;20597;-61
2023/10/07 05:45:46;;;;;;;9.40;1.63;;;;;;;;;;4966732;28;20042;-60
2023/10/07 05:48:13;;;;;;;6.80;1.50;;;;;;;;;;4966102;28;20474;-61
2023/10/07 05:50:39;;;;;;;3.45;1.20;;;;;;;;;;4965304;28;20043;-58
2023/10/07 05:53:06;;;;;;;8.55;1.67;;;;;;;;;;4966337;28;20118;-61
2023/10/07 05:55:36;;;;;;;6.28;1.20;;;;;;;;;;4967656;28;20035;-59
2023/10/07 05:58:04;;;;;;;5.25;1.58;;;;;;;;;;4969072;28;20034;-60
2023/10/07 06:00:36;;;;;;;6.05;1.50;;;;;;;;;;4970942;28;20050;-62
2023/10/07 06:03:06;;;;;;;4.35;1.38;;;;;;;;;;4953817;28;20053;-61
2023/10/07 06:05:37;;;;;;;6.03;1.42;;;;;;;;;;4958035;28;20039;-60
2023/10/07 06:08:05;;;;;;;3.88;1.27;;;;;;;;;;4958811;28;20043;-62
2023/10/07 06:10:33;;;;;;;7.05;1.40;;;;;;;;;;4954389;28;20533;-62
2023/10/07 06:13:09;;;;;;;6.15;1.50;;;;;;;;;;4952082;28;20093;-63
2023/10/07 06:15:39;;;;;;;5.80;1.50;;;;;;;;;;4955072;28;20181;-62
2023/10/07 06:18:06;;;;;;;5.78;1.83;;;;;;;;;;4954899;28;20117;-62
2023/10/07 06:20:46;;;;;;;5.00;1.30;;;;;;;;;;4942495;28;20079;-60
2023/10/07 06:23:14;;;;;;;6.00;1.52;;;;;;;;;;4949333;28;20066;-62
2023/10/07 06:25:51;;;;;;;5.47;1.30;;;;;;;;;;4952525;28;20077;-61
2023/10/07 06:31:11;;;;;;;5.35;1.38;;;;;;;;;;4952484;28;20081;-57
2023/10/07 06:33:41;;;;;;;7.68;1.40;;;;;;;;;;4952250;28;20502;-62
2023/10/07 06:36:10;;;;;;;8.50;1.42;;;;;;;;;;4951932;28;20133;-61
2023/10/07 06:38:39;;;;;;;4.57;1.10;;;;;;;;;;4951413;28;20093;-60
2023/10/07 06:41:11;;;;;;;6.20;1.42;;;;;;;;;;4964569;28;21480;-63
2023/10/07 06:43:49;;;;;;;7.85;1.40;;;;;;;;;;4948484;28;20181;-62
2023/10/07 06:46:22;;;;;;;7.85;1.10;;;;;;;;;;4951899;28;20582;-62
2023/10/07 06:48:48;;;;;;;4.80;1.20;;;;;;;;;;4963802;28;20527;-62
2023/10/07 06:51:15;;;;;;;6.28;1.45;;;;;;;;;;4951482;28;20054;-62
2023/10/07 06:53:45;;;;;;;11.32;1.40;;;;;;;;;;4949337;28;20038;-60
2023/10/07 06:56:21;;;;;;;10.38;1.40;;;;;;;;;;4952424;28;20054;-63
2023/10/07 06:58:58;;;;;;;5.15;1.40;;;;;;;;;;4951855;28;20039;-59
2023/10/07 07:01:35;;;;;;;2.92;0.95;;;;;;;;;;4952500;28;20102;-61
2023/10/07 07:04:10;;;;;;;4.90;1.20;;;;;;;;;;4956038;28;20057;-60
2023/10/07 07:06:44;;;;;;;5.68;1.13;;;;;;;;;;4955504;28;20843;-59
2023/10/07 07:11:58;;;;;;;7.38;1.40;;;;;;;;;;4955341;28;20438;-62
2023/10/07 07:14:30;;;;;;;6.22;1.30;;;;;;;;;;4957389;28;20107;-63
2023/10/07 07:22:34;;;;;;;6.05;1.50;;;;;;;;;;4954154;28;20062;-59
2023/10/07 07:25:10;;;;;;;5.85;1.20;;;;;;;;;;4956392;28;20101;-60
2023/10/07 07:27:36;;;;;;;6.88;1.17;;;;;;;;;;4956069;28;20039;-63
2023/10/07 07:30:17;;;;;;;6.72;1.20;;;;;;;;;;4957227;28;20038;-59
2023/10/07 07:32:44;;;;;;;9.52;1.30;;;;;;;;;;4956224;28;20050;-60
2023/10/07 07:35:11;;;;;;;5.50;1.40;;;;;;;;;;4955790;28;20167;-59
2023/10/07 07:37:40;;;;;;;5.95;1.10;;;;;;;;;;4955291;28;20385;-60
2023/10/07 07:40:35;;;;;;;4.80;1.38;;;;;;;;;;4956653;28;20427;-62
2023/10/07 07:42:56;;;;;;;7.32;1.27;;;;;;;;;;4961998;28;20146;-59
2023/10/07 07:45:28;;;;;;;11.07;1.23;;;;;;;;;;4955870;28;20039;-60
2023/10/07 07:47:55;;;;;;;12.02;1.27;;;;;;;;;;4956262;28;20074;-60
2023/10/07 07:50:22;;;;;;;4.40;1.20;;;;;;;;;;4955651;28;20089;-58
2023/10/07 07:52:49;;;;;;;3.85;1.10;;;;;;;;;;4955403;28;20043;-59
2023/10/07 07:55:17;;;;;;;4.93;1.30;;;;;;;;;;4957015;28;20618;-60
2023/10/07 07:57:44;;;;;;;6.13;1.30;;;;;;;;;;4954911;28;20082;-59
2023/10/07 08:00:20;;;;;;;9.23;2.20;;;;;;;;;;4955139;28;20562;-59
2023/10/07 08:02:50;;;;;;;7.03;1.10;;;;;;;;;;4961489;28;20078;-60
2023/10/07 08:05:17;;;;;;;6.90;1.40;;;;;;;;;;4955184;28;20035;-61
2023/10/07 08:07:46;;;;;;;3.70;1.30;;;;;;;;;;4952647;28;20053;-61
2023/10/07 08:10:20;;;;;;;4.43;1.30;;;;;;;;;;4955208;28;20043;-59
2023/10/07 08:12:50;;;;;;;6.25;1.48;;;;;;;;;;4948628;28;20061;-61
2023/10/07 08:15:23;;;;;;;4.30;1.40;;;;;;;;;;4953422;28;20101;-62
2023/10/07 08:17:56;;;;;;;6.28;1.25;;;;;;;;;;4954542;28;20047;-59
2023/10/07 08:21:13;;;;;;;7.38;1.20;;;;;;;;;;4953213;28;20059;-59
2023/10/07 08:23:21;;;;;;;7.68;1.20;;;;;;;;;;4945673;28;20498;-59
2023/10/07 08:25:49;;;;;;;4.30;1.33;;;;;;;;;;4953749;28;21175;-59
2023/10/07 08:28:23;;;;;;;2.63;1.10;;;;;;;;;;4955074;28;20070;-59
2023/10/07 08:30:50;;;;;;;4.47;1.27;;;;;;;;;;4960825;28;20047;-60
2023/10/07 08:33:22;;;;;;;4.63;1.30;;;;;;;;;;4954357;28;20162;-62
2023/10/07 08:35:49;;;;;;;4.55;1.10;;;;;;;;;;4953438;28;20047;-64
2023/10/07 08:38:50;;;;;;;4.15;0.95;;;;;;;;;;4953394;28;20043;-61
2023/10/07 08:41:18;;;;;;;3.35;0.98;;;;;;;;;;4971295;28;20443;-60
2023/10/07 08:43:48;;;;;;;5.93;1.20;;;;;;;;;;4962261;28;20782;-62
2023/10/07 08:46:19;;;;;;;3.65;1.10;;;;;;;;;;4951285;28;20088;-60
2023/10/07 08:48:50;;;;;;;2.65;0.82;;;;;;;;;;4952170;28;20597;-60
2023/10/07 08:51:22;;;;;;;7.28;1.10;;;;;;;;;;4953459;28;20310;-62
2023/10/07 08:53:51;;;;;;;3.90;1.23;;;;;;;;;;4960347;28;21479;-59
2023/10/07 08:56:20;;;;;;;5.30;1.20;;;;;;;;;;4954134;28;20034;-60
2023/10/07 08:58:49;;;;;;;2.33;0.90;;;;;;;;;;4953031;28;20147;-62
2023/10/07 09:01:17;;;;;;;10.15;1.33;;;;;;;;;;4952640;28;20047;-62
2023/10/07 09:03:48;;;;;;;3.25;0.90;;;;;;;;;;4952209;28;20228;-60
2023/10/07 09:06:15;;;;;;;3.38;0.77;;;;;;;;;;4953488;28;20041;-61
2023/10/07 09:08:43;;;;;;;2.85;0.80;;;;;;;;;;4952603;28;20637;-59
2023/10/07 09:11:18;;;;;;;3.17;0.70;;;;;;;;;;4953010;28;20062;-59
2023/10/07 09:13:45;;;;;;;3.35;0.80;;;;;;;;;;4974694;28;20054;-59
2023/10/07 09:16:12;;;;;;;4.00;0.80;;;;;;;;;;4953177;28;20707;-62
2023/10/07 09:18:42;;;;;;;4.50;0.82;;;;;;;;;;4948380;28;20158;-59
2023/10/07 09:21:22;;;;;;;2.40;0.70;;;;;;;;;;4952438;28;20162;-59
2023/10/07 09:23:59;;;;;;;2.60;0.85;;;;;;;;;;4952490;28;20050;-59
2023/10/07 09:26:37;;;;;;;6.25;0.90;;;;;;;;;;4948570;28;20051;-58
2023/10/07 09:29:21;;;;;;;5.30;0.82;;;;;;;;;;4952887;28;20039;-62
2023/10/07 09:32:04;;;;;;;4.10;0.70;;;;;;;;;;4959397;28;20090;-63
2023/10/07 09:34:55;;;;;;;2.40;0.80;;;;;;;;;;4955669;28;20081;-62
2023/10/07 09:37:32;;;;;;;6.13;1.10;;;;;;;;;;4952498;28;20356;-62
2023/10/07 09:40:19;;;;;;;4.07;1.00;;;;;;;;;;4951439;28;20106;-59
2023/10/07 09:43:00;;;;;;;3.70;0.88;;;;;;;;;;4941022;28;20102;-61
2023/10/07 09:45:28;;;;;;;3.60;0.80;;;;;;;;;;4975361;28;20030;-61
2023/10/07 09:48:00;;;;;;;4.75;0.90;;;;;;;;;;4973085;28;20796;-60
2023/10/07 09:50:33;;;;;;;2.72;0.77;;;;;;;;;;4952901;28;20061;-61
2023/10/07 09:53:17;;;;;;;4.07;0.82;;;;;;;;;;4952549;28;20038;-58
2023/10/07 09:55:57;;;;;;;2.40;0.80;;;;;;;;;;4949320;28;20089;-62
2023/10/07 09:58:26;;;;;;;2.05;0.65;;;;;;;;;;4953666;28;20042;-61
2023/10/07 10:01:07;;;;;;;4.60;0.80;;;;;;;;;;4953316;28;20240;-65
2023/10/07 10:03:34;;;;;;;4.47;0.93;;;;;;;;;;4966658;28;20062;-62
2023/10/07 10:06:07;;;;;;;3.28;0.90;;;;;;;;;;4953408;28;20037;-60
2023/10/07 10:08:44;;;;;;;4.63;1.00;;;;;;;;;;4953662;28;20039;-63
2023/10/07 10:11:30;;;;;;;5.97;0.98;;;;;;;;;;4952153;28;20058;-60
2023/10/07 10:16:45;;;;;;;4.78;0.90;;;;;;;;;;4952742;28;20295;-61
2023/10/07 10:19:25;;;;;;;4.72;1.08;;;;;;;;;;4953888;28;20063;-61
2023/10/07 10:21:52;;;;;;;3.45;0.90;;;;;;;;;;4964831;28;20524;-60
2023/10/07 10:24:23;;;;;;;4.38;1.42;;;;;;;;;;4950405;28;20050;-65
2023/10/07 10:27:04;;;;;;;5.47;0.75;;;;;;;;;;4951236;28;20038;-61
2023/10/07 10:29:36;;;;;;;3.47;1.17;;;;;;;;;;4964462;28;20511;-60
2023/10/07 10:32:07;;;;;;;3.87;0.90;;;;;;;;;;4948275;28;20039;-61
2023/10/07 10:34:35;;;;;;;6.85;1.20;;;;;;;;;;4952386;28;20404;-59
2023/10/07 10:37:05;;;;;;;4.68;1.00;;;;;;;;;;4950736;28;20043;-60
2023/10/07 10:39:32;;;;;;;2.90;1.00;;;;;;;;;;4953097;28;20101;-62
2023/10/07 10:42:02;;;;;;;3.63;0.88;;;;;;;;;;4960592;28;20064;-60
2023/10/07 10:44:48;;;;;;;4.90;1.08;;;;;;;;;;4957320;28;20094;-62
2023/10/07 10:47:18;;;;;;;4.05;0.90;;;;;;;;;;4955266;28;20038;-62
2023/10/07 10:49:45;;;;;;;5.38;1.27;;;;;;;;;;4946161;28;20507;-60
2023/10/07 10:52:18;;;;;;;6.00;1.52;;;;;;;;;;4956052;28;20129;-60
2023/10/07 10:54:44;;;;;;;6.15;1.45;;;;;;;;;;4951376;28;20106;-59
2023/10/07 10:57:19;;;;;;;4.43;1.00;;;;;;;;;;4952489;28;20047;-60
2023/10/07 10:59:49;;;;;;;5.65;1.17;;;;;;;;;;4959305;28;20120;-58
2023/10/07 11:02:22;;;;;;;2.75;0.80;;;;;;;;;;4952519;28;20472;-62
2023/10/07 11:04:56;;;;;;;3.47;0.95;;;;;;;;;;4972192;28;20525;-62
2023/10/07 11:07:22;;;;;;;;;;;;;;;;;;4953454;28;20119;-59
2023/10/07 11:09:51;;;;;;;4.88;1.10;;;;;;;;;;4959922;28;20398;-59
2023/10/07 11:12:19;;;;;;;2.83;0.70;;;;;;;;;;4951689;28;20125;-59
2023/10/07 11:14:49;;;;;;;2.75;0.70;;;;;;;;;;4956560;28;20042;-59
2023/10/07 11:17:16;;;;;;;5.05;0.80;;;;;;;;;;4951645;28;20081;-59
2023/10/07 11:19:44;;;;;;;1.75;0.60;;;;;;;;;;4950758;28;20043;-59
2023/10/07 11:22:18;;;;;;;5.95;1.08;;;;;;;;;;4951235;28;20039;-62
2023/10/07 11:24:46;;;;;;;2.70;0.95;;;;;;;;;;4976960;28;20124;-59
2023/10/07 11:27:12;;;;;;;4.07;0.93;;;;;;;;;;4955577;28;20263;-60
2023/10/07 11:29:40;;;;;;;4.28;1.10;;;;;;;;;;4958612;28;20100;-61
2023/10/07 11:32:08;;;;;;;9.88;1.30;;;;;;;;;;4950727;28;21306;-60
2023/10/07 11:34:38;;;;;;;4.13;1.20;;;;;;;;;;4950323;28;20508;-61
2023/10/07 11:37:09;;;;;;;2.95;0.90;;;;;;;;;;4953293;28;20047;-59
2023/10/07 11:39:43;;;;;;;4.15;1.38;;;;;;;;;;4949985;28;20047;-65
2023/10/07 11:42:11;;;;;;;3.72;1.00;;;;;;;;;;4951306;28;20063;-67
2023/10/07 11:44:38;;;;;;;6.47;1.02;;;;;;;;;;4949018;28;20641;-61
2023/10/07 11:47:06;;;;;;;3.20;0.98;;;;;;;;;;4952823;28;20130;-61
2023/10/07 11:49:36;;;;;;;5.93;1.23;;;;;;;;;;4954066;28;20039;-62
2023/10/07 11:52:04;;;;;;;5.47;1.20;;;;;;;;;;4954974;28;20051;-62
2023/10/07 11:54:34;;;;;;;2.60;0.90;;;;;;;;;;4952944;28;20125;-60
2023/10/07 11:57:02;;;;;;;5.53;1.15;;;;;;;;;;4954264;28;20157;-60
2023/10/07 11:59:30;;;;;;;7.75;1.23;;;;;;;;;;4953839;28;21472;-59
2023/10/07 12:01:58;;;;;;;3.80;1.10;;;;;;;;;;4948623;28;20054;-62
2023/10/07 12:04:26;;;;;;;4.55;1.13;;;;;;;;;;4952957;28;20082;-61
2023/10/07 12:06:53;;;;;;;3.05;1.23;;;;;;;;;;4954512;28;20058;-62
2023/10/07 12:09:21;;;;;;;5.47;1.38;;;;;;;;;;4954716;28;20512;-63
2023/10/07 12:11:53;;;;;;;3.20;1.02;;;;;;;;;;4954494;28;20053;-59
2023/10/07 12:14:20;;;;;;;6.78;1.23;;;;;;;;;;4955091;28;20199;-58
2023/10/07 12:16:47;;;;;;;3.72;1.20;;;;;;;;;;4963515;28;20041;-59
2023/10/07 12:19:17;;;;;;;4.82;1.65;;;;;;;;;;4954590;28;20036;-58
2023/10/07 12:21:45;;;;;;;6.30;1.95;;;;;;;;;;4953250;28;20341;-59
2023/10/07 12:24:12;;;;;;;4.47;1.60;;;;;;;;;;4953959;28;20051;-59
2023/10/07 12:26:39;;;;;;;5.80;2.05;;;;;;;;;;4953067;28;20100;-57
2023/10/07 12:29:06;;;;;;;7.35;2.50;;;;;;;;;;4969489;28;20475;-59
2023/10/07 12:31:33;;;;;;;10.85;2.45;;;;;;;;;;4953149;28;20043;-60
2023/10/07 12:34:00;;;;;;;16.38;2.63;;;;;;;;;;4954944;28;20046;-59
2023/10/07 12:36:26;;;;;;;6.88;1.70;;;;;;;;;;4951990;28;20393;-64
2023/10/07 12:38:53;;;;;;;8.43;1.88;;;;;;;;;;4952705;28;20039;-59
2023/10/07 12:41:21;;;;;;;4.65;1.67;;;;;;;;;;4952391;28;20670;-62
2023/10/07 12:43:47;;;;;;;7.35;1.92;;;;;;;;;;4952719;28;20424;-63
2023/10/07 12:46:14;;;;;;;10.23;1.60;;;;;;;;;;4953434;28;20537;-64
2023/10/07 12:48:41;;;;;;;11.85;2.00;;;;;;;;;;4952284;28;20130;-59
2023/10/07 12:51:08;;;;;;;5.57;1.63;;;;;;;;;;4953351;28;20715;-59
2023/10/07 12:53:35;;;;;;;8.82;1.65;;;;;;;;;;4952200;28;20038;-60
2023/10/07 12:56:17;;;;;;;7.03;1.70;;;;;;;;;;4953283;28;20149;-65
2023/10/07 12:58:48;;;;;;;8.27;1.77;;;;;;;;;;4953220;28;20030;-59
2023/10/07 13:01:14;;;;;;;9.63;1.60;;;;;;;;;;4954190;28;20042;-58
2023/10/07 13:03:44;;;;;;;7.53;1.52;;;;;;;;;;4952961;28;20051;-58
2023/10/07 13:06:14;;;;;;;7.20;1.50;;;;;;;;;;4960492;28;20077;-62
2023/10/07 13:08:41;;;;;;;4.47;1.58;;;;;;;;;;4965190;28;20044;-63
2023/10/07 13:11:14;;;;;;;10.07;1.42;;;;;;;;;;4974280;28;20049;-59
2023/10/07 13:13:41;;;;;;;5.95;1.50;;;;;;;;;;4953778;28;20051;-60
2023/10/07 13:16:11;;;;;;;4.82;1.40;;;;;;;;;;4966644;28;20122;-60
2023/10/07 13:18:41;;;;;;;11.15;1.48;;;;;;;;;;4953807;28;20088;-61
2023/10/07 13:21:13;;;;;;;10.13;1.80;;;;;;;;;;4951531;28;20491;-60
2023/10/07 13:23:42;;;;;;;9.60;1.58;;;;;;;;;;4951774;28;20047;-61
2023/10/07 13:26:10;;;;;;;6.93;1.50;;;;;;;;;;4968046;28;20602;-62
2023/10/07 13:28:38;;;;;;;3.72;1.20;;;;;;;;;;4952023;28;20098;-61
2023/10/07 13:31:08;;;;;;;8.43;1.48;;;;;;;;;;4954040;28;20053;-59
2023/10/07 13:33:38;;;;;;;8.05;1.55;;;;;;;;;;4952590;28;20513;-59
2023/10/07 13:36:08;;;;;;;10.02;1.45;;;;;;;;;;4949747;28;20062;-59
2023/10/07 13:38:35;;;;;;;4.97;1.50;;;;;;;;;;4952013;28;20571;-62
2023/10/07 13:41:03;;;;;;;4.57;1.35;;;;;;;;;;4967398;28;20610;-62
2023/10/07 13:43:33;;;;;;;5.55;1.40;;;;;;;;;;4952437;28;20064;-60
2023/10/07 13:46:03;;;;;;;8.02;1.70;;;;;;;;;;4952551;28;20038;-61
2023/10/07 13:48:30;;;;;;;6.43;1.80;;;;;;;;;;4945158;28;20074;-59
2023/10/07 13:51:00;;;;;;;11.75;1.65;;;;;;;;;;4981731;28;20430;-61
2023/10/07 13:56:23;;;;;;;8.32;1.77;;;;;;;;;;4950545;28;20042;-62
2023/10/07 13:58:50;;;;;;;7.03;1.50;;;;;;;;;;4951971;28;20687;-63
2023/10/07 14:01:16;;;;;;;10.88;1.70;;;;;;;;;;4952616;28;20042;-62
2023/10/07 14:03:44;;;;;;;3.85;1.50;;;;;;;;;;4965058;28;20899;-61
2023/10/07 14:06:12;;;;;;;6.45;1.73;;;;;;;;;;4951348;28;20082;-61
2023/10/07 14:08:43;;;;;;;7.93;2.17;;;;;;;;;;4950477;28;20144;-59
2023/10/07 14:11:10;;;;;;;14.80;2.22;;;;;;;;;;4951385;28;20074;-59
2023/10/07 14:13:39;;;;;;;11.65;2.25;;;;;;;;;;4946455;28;20109;-58
2023/10/07 14:16:10;;;;;;;7.95;2.20;;;;;;;;;;4951727;28;20081;-58
2023/10/07 14:18:39;;;;;;;8.80;1.85;;;;;;;;;;4950756;28;20070;-64
2023/10/07 14:21:09;;;;;;;14.60;2.13;;;;;;;;;;4951767;28;20043;-63
2023/10/07 14:23:38;;;;;;;11.13;1.70;;;;;;;;;;4950153;28;20636;-63
2023/10/07 14:26:15;;;;;;;6.18;1.60;;;;;;;;;;4954682;28;20053;-64
2023/10/07 14:28:45;;;;;;;5.10;1.67;;;;;;;;;;4951519;28;20183;-66
2023/10/07 14:31:36;;;;;;;11.73;1.90;;;;;;;;;;4972857;28;20042;-56
2023/10/07 14:34:07;;;;;;;7.15;1.52;;;;;;;;;;4972155;28;20765;-59
2023/10/07 14:36:38;;;;;;;7.15;1.48;;;;;;;;;;4972219;28;20657;-60
2023/10/07 14:39:11;;;;;;;8.85;1.60;;;;;;;;;;4971945;28;20598;-59
2023/10/07 14:41:39;;;;;;;6.90;1.75;;;;;;;;;;4972100;28;20133;-60
2023/10/07 14:44:05;;;;;;;5.55;1.40;;;;;;;;;;4972843;28;20056;-61
2023/10/07 14:46:32;;;;;;;7.75;1.77;;;;;;;;;;4971703;28;20046;-60
2023/10/07 14:48:59;;;;;;;10.45;1.63;;;;;;;;;;4971576;28;20848;-61
2023/10/07 14:51:29;;;;;;;8.27;1.75;;;;;;;;;;4971741;28;20033;-62
2023/10/07 14:53:56;;;;;;;5.30;1.77;;;;;;;;;;4972032;28;20661;-60
2023/10/07 14:56:24;;;;;;;7.78;2.00;;;;;;;;;;4951674;28;20559;-60
2023/10/07 14:58:51;;;;;;;4.95;1.42;;;;;;;;;;4971261;28;20498;-60
2023/10/07 15:01:24;;;;;;;5.80;1.60;;;;;;;;;;4971029;28;20550;-59
2023/10/07 15:03:52;;;;;;;6.53;1.40;;;;;;;;;;4946953;28;20058;-65
2023/10/07 15:06:21;;;;;;;7.53;1.40;;;;;;;;;;4950280;28;20152;-67
2023/10/07 15:08:48;;;;;;;10.20;1.70;;;;;;;;;;4952457;28;20034;-59
2023/10/07 15:11:19;;;;;;;8.50;1.50;;;;;;;;;;4952910;28;20041;-67
2023/10/07 15:13:50;;;;;;;8.02;1.98;;;;;;;;;;4951350;28;21430;-62
2023/10/07 15:16:16;;;;;;;9.48;1.60;;;;;;;;;;4951091;28;20076;-60
2023/10/07 15:18:44;;;;;;;8.52;1.55;;;;;;;;;;4954363;28;20049;-59
2023/10/07 15:21:11;;;;;;;7.57;1.75;;;;;;;;;;4951482;28;20083;-59
2023/10/07 15:23:38;;;;;;;4.65;1.40;;;;;;;;;;4954309;28;20082;-62
2023/10/07 15:26:17;;;;;;;5.38;1.50;;;;;;;;;;4953250;28;20124;-60
2023/10/07 15:28:45;;;;;;;6.57;1.10;;;;;;;;;;4972894;28;20583;-59
2023/10/07 15:31:11;;;;;;;8.23;1.73;;;;;;;;;;4960678;28;20034;-59
2023/10/07 15:33:58;;;;;;;6.72;1.40;;;;;;;;;;4958886;28;20113;-59
2023/10/07 15:36:25;;;;;;;13.90;1.70;;;;;;;;;;4957844;28;20094;-59
2023/10/07 15:38:52;;;;;;;6.07;2.08;;;;;;;;;;4956420;28;20044;-61
2023/10/07 15:41:22;;;;;;;9.10;2.15;;;;;;;;;;4954697;28;20038;-60
2023/10/07 15:43:49;;;;;;;3.70;0.93;;;;;;;;;;4962435;28;20117;-61
2023/10/07 15:46:19;;;;;;;6.65;1.05;;;;;;;;;;4956109;28;20551;-60
2023/10/07 15:48:45;;;;;;;3.45;1.02;;;;;;;;;;4954387;28;20530;-59
2023/10/07 15:51:13;;;;;;;4.65;1.20;;;;;;;;;;4956492;28;20043;-59
2023/10/07 15:53:40;;;;;;;5.32;1.23;;;;;;;;;;4957628;28;20505;-67
2023/10/07 15:56:10;;;;;;;5.72;1.23;;;;;;;;;;4956773;28;20039;-60
2023/10/07 15:58:38;;;;;;;4.40;1.40;;;;;;;;;;4947556;28;20087;-61
2023/10/07 16:01:09;;;;;;;7.20;1.05;;;;;;;;;;4967935;28;20043;-66